sensor_id;sensor_type;location;lat;lon;timestamp;P1;durP1;ratioP1;P2;durP2;ratioP2
13718;SDS011;6931;51.100;17.068;2024-03-02T00:00:07;59.50;;;44.92;;
13718;SDS011;6931;51.100;17.068;2024-03-02T00:02:43;64.78;;;44.97;;
13718;SDS011;6931;51.100;17.068;2024-03-02T00:05:14;64.03;;;45.97;;
13718;SDS011;6931;51.100;17.068;2024-03-02T00:07:42;62.95;;;46.13;;
13718;SDS011;6931;51.100;17.068;2024-03-02T00:10:10;65.63;;;47.28;;
13718;SDS011;6931;51.100;17.068;2024-03-02T00:12:41;61.00;;;46.30;;
13718;SDS011;6931;51.100;17.068;2024-03-02T00:18:04;60.95;;;45.85;;
13718;SDS011;6931;51.100;17.068;2024-03-02T00:20:31;57.72;;;45.00;;
13718;SDS011;6931;51.100;17.068;2024-03-02T00:23:07;63.28;;;46.58;;
13718;SDS011;6931;51.100;17.068;2024-03-02T00:28:14;63.75;;;45.17;;
13718;SDS011;6931;51.100;17.068;2024-03-02T00:33:10;62.95;;;46.50;;
13718;SDS011;6931;51.100;17.068;2024-03-02T00:35:37;68.07;;;47.03;;
13718;SDS011;6931;51.100;17.068;2024-03-02T00:38:04;62.90;;;46.75;;
13718;SDS011;6931;51.100;17.068;2024-03-02T00:40:32;64.80;;;46.67;;
13718;SDS011;6931;51.100;17.068;2024-03-02T00:42:59;70.00;;;46.63;;
13718;SDS011;6931;51.100;17.068;2024-03-02T00:45:26;66.72;;;46.35;;
13718;SDS011;6931;51.100;17.068;2024-03-02T00:47:53;72.13;;;47.25;;
13718;SDS011;6931;51.100;17.068;2024-03-02T00:50:20;63.20;;;45.60;;
13718;SDS011;6931;51.100;17.068;2024-03-02T00:52:56;64.75;;;46.13;;
13718;SDS011;6931;51.100;17.068;2024-03-02T00:55:22;62.28;;;46.47;;
13718;SDS011;6931;51.100;17.068;2024-03-02T00:57:49;68.65;;;47.22;;
13718;SDS011;6931;51.100;17.068;2024-03-02T01:00:15;71.13;;;48.28;;
13718;SDS011;6931;51.100;17.068;2024-03-02T01:02:44;65.53;;;46.88;;
13718;SDS011;6931;51.100;17.068;2024-03-02T01:05:12;66.00;;;46.88;;
13718;SDS011;6931;51.100;17.068;2024-03-02T01:07:39;68.20;;;46.83;;
13718;SDS011;6931;51.100;17.068;2024-03-02T01:10:06;69.20;;;46.70;;
13718;SDS011;6931;51.100;17.068;2024-03-02T01:12:32;64.38;;;46.53;;
13718;SDS011;6931;51.100;17.068;2024-03-02T01:14:59;63.97;;;46.42;;
13718;SDS011;6931;51.100;17.068;2024-03-02T01:17:25;64.57;;;48.05;;
13718;SDS011;6931;51.100;17.068;2024-03-02T01:19:52;71.55;;;47.63;;
13718;SDS011;6931;51.100;17.068;2024-03-02T01:22:18;63.97;;;47.55;;
13718;SDS011;6931;51.100;17.068;2024-03-02T01:24:51;70.43;;;47.50;;
13718;SDS011;6931;51.100;17.068;2024-03-02T01:27:18;67.30;;;47.35;;
13718;SDS011;6931;51.100;17.068;2024-03-02T01:29:45;71.68;;;48.33;;
13718;SDS011;6931;51.100;17.068;2024-03-02T01:32:11;67.05;;;46.97;;
13718;SDS011;6931;51.100;17.068;2024-03-02T01:34:38;68.63;;;48.30;;
13718;SDS011;6931;51.100;17.068;2024-03-02T01:37:04;64.13;;;45.40;;
13718;SDS011;6931;51.100;17.068;2024-03-02T01:39:31;65.88;;;48.78;;
13718;SDS011;6931;51.100;17.068;2024-03-02T01:41:58;71.20;;;47.88;;
13718;SDS011;6931;51.100;17.068;2024-03-02T01:44:24;65.82;;;46.97;;
13718;SDS011;6931;51.100;17.068;2024-03-02T01:46:51;76.82;;;49.97;;
13718;SDS011;6931;51.100;17.068;2024-03-02T01:49:17;69.40;;;48.88;;
13718;SDS011;6931;51.100;17.068;2024-03-02T01:51:45;66.10;;;48.05;;
13718;SDS011;6931;51.100;17.068;2024-03-02T01:54:12;71.82;;;49.85;;
13718;SDS011;6931;51.100;17.068;2024-03-02T01:56:39;70.10;;;49.47;;
13718;SDS011;6931;51.100;17.068;2024-03-02T01:59:05;73.95;;;50.90;;
13718;SDS011;6931;51.100;17.068;2024-03-02T02:01:32;70.93;;;49.63;;
13718;SDS011;6931;51.100;17.068;2024-03-02T02:03:59;73.80;;;53.47;;
13718;SDS011;6931;51.100;17.068;2024-03-02T02:06:26;78.78;;;54.58;;
13718;SDS011;6931;51.100;17.068;2024-03-02T02:08:53;78.53;;;56.35;;
13718;SDS011;6931;51.100;17.068;2024-03-02T02:11:20;79.95;;;54.75;;
13718;SDS011;6931;51.100;17.068;2024-03-02T02:13:46;80.93;;;56.08;;
13718;SDS011;6931;51.100;17.068;2024-03-02T02:16:13;82.28;;;56.45;;
13718;SDS011;6931;51.100;17.068;2024-03-02T02:18:40;82.22;;;58.38;;
13718;SDS011;6931;51.100;17.068;2024-03-02T02:21:06;88.82;;;58.30;;
13718;SDS011;6931;51.100;17.068;2024-03-02T02:23:33;83.85;;;58.90;;
13718;SDS011;6931;51.100;17.068;2024-03-02T02:25:59;89.57;;;59.97;;
13718;SDS011;6931;51.100;17.068;2024-03-02T02:28:26;89.60;;;60.05;;
13718;SDS011;6931;51.100;17.068;2024-03-02T02:30:54;88.75;;;61.88;;
13718;SDS011;6931;51.100;17.068;2024-03-02T02:33:22;94.40;;;60.33;;
13718;SDS011;6931;51.100;17.068;2024-03-02T02:35:49;87.75;;;59.47;;
13718;SDS011;6931;51.100;17.068;2024-03-02T02:38:15;82.50;;;56.00;;
13718;SDS011;6931;51.100;17.068;2024-03-02T02:40:42;82.38;;;58.63;;
13718;SDS011;6931;51.100;17.068;2024-03-02T02:43:09;85.30;;;57.72;;
13718;SDS011;6931;51.100;17.068;2024-03-02T02:45:35;79.85;;;55.25;;
13718;SDS011;6931;51.100;17.068;2024-03-02T02:48:02;80.30;;;53.30;;
13718;SDS011;6931;51.100;17.068;2024-03-02T02:50:29;76.63;;;53.17;;
13718;SDS011;6931;51.100;17.068;2024-03-02T02:52:56;76.72;;;52.65;;
13718;SDS011;6931;51.100;17.068;2024-03-02T02:55:22;77.97;;;53.70;;
13718;SDS011;6931;51.100;17.068;2024-03-02T02:57:49;74.97;;;51.55;;
13718;SDS011;6931;51.100;17.068;2024-03-02T03:00:16;68.35;;;49.55;;
13718;SDS011;6931;51.100;17.068;2024-03-02T03:02:46;71.93;;;49.42;;
13718;SDS011;6931;51.100;17.068;2024-03-02T03:05:15;73.50;;;48.53;;
13718;SDS011;6931;51.100;17.068;2024-03-02T03:07:42;70.05;;;49.17;;
13718;SDS011;6931;51.100;17.068;2024-03-02T03:10:11;70.28;;;49.33;;
13718;SDS011;6931;51.100;17.068;2024-03-02T03:12:37;73.85;;;50.42;;
13718;SDS011;6931;51.100;17.068;2024-03-02T03:15:07;70.80;;;49.45;;
13718;SDS011;6931;51.100;17.068;2024-03-02T03:17:35;68.22;;;48.78;;
13718;SDS011;6931;51.100;17.068;2024-03-02T03:20:02;72.90;;;49.85;;
13718;SDS011;6931;51.100;17.068;2024-03-02T03:22:30;71.03;;;48.95;;
13718;SDS011;6931;51.100;17.068;2024-03-02T03:24:58;76.68;;;50.40;;
13718;SDS011;6931;51.100;17.068;2024-03-02T03:27:24;74.50;;;50.20;;
13718;SDS011;6931;51.100;17.068;2024-03-02T03:29:51;78.47;;;50.55;;
13718;SDS011;6931;51.100;17.068;2024-03-02T03:32:18;73.78;;;50.45;;
13718;SDS011;6931;51.100;17.068;2024-03-02T03:34:44;74.03;;;50.80;;
13718;SDS011;6931;51.100;17.068;2024-03-02T03:37:11;70.93;;;49.47;;
13718;SDS011;6931;51.100;17.068;2024-03-02T03:39:38;69.70;;;50.33;;
13718;SDS011;6931;51.100;17.068;2024-03-02T03:42:05;69.30;;;49.20;;
13718;SDS011;6931;51.100;17.068;2024-03-02T03:44:32;72.63;;;49.92;;
13718;SDS011;6931;51.100;17.068;2024-03-02T03:46:58;72.25;;;49.30;;
13718;SDS011;6931;51.100;17.068;2024-03-02T03:49:25;70.45;;;48.40;;
13718;SDS011;6931;51.100;17.068;2024-03-02T03:51:52;64.55;;;46.55;;
13718;SDS011;6931;51.100;17.068;2024-03-02T03:54:19;68.97;;;48.40;;
13718;SDS011;6931;51.100;17.068;2024-03-02T03:56:45;75.57;;;51.10;;
13718;SDS011;6931;51.100;17.068;2024-03-02T03:59:12;72.97;;;51.13;;
13718;SDS011;6931;51.100;17.068;2024-03-02T04:01:39;77.32;;;52.17;;
13718;SDS011;6931;51.100;17.068;2024-03-02T04:04:05;77.95;;;54.50;;
13718;SDS011;6931;51.100;17.068;2024-03-02T04:06:32;79.78;;;53.05;;
13718;SDS011;6931;51.100;17.068;2024-03-02T04:08:58;73.18;;;53.50;;
13718;SDS011;6931;51.100;17.068;2024-03-02T04:11:25;74.95;;;51.83;;
13718;SDS011;6931;51.100;17.068;2024-03-02T04:13:52;75.97;;;51.97;;
13718;SDS011;6931;51.100;17.068;2024-03-02T04:16:22;70.82;;;49.05;;
13718;SDS011;6931;51.100;17.068;2024-03-02T04:18:49;69.32;;;48.42;;
13718;SDS011;6931;51.100;17.068;2024-03-02T04:21:15;69.57;;;46.58;;
13718;SDS011;6931;51.100;17.068;2024-03-02T04:23:42;68.47;;;46.00;;
13718;SDS011;6931;51.100;17.068;2024-03-02T04:26:08;60.30;;;43.83;;
13718;SDS011;6931;51.100;17.068;2024-03-02T04:28:35;61.33;;;43.35;;
13718;SDS011;6931;51.100;17.068;2024-03-02T04:31:01;59.40;;;43.10;;
13718;SDS011;6931;51.100;17.068;2024-03-02T04:33:28;56.90;;;42.63;;
13718;SDS011;6931;51.100;17.068;2024-03-02T04:35:55;61.30;;;42.03;;
13718;SDS011;6931;51.100;17.068;2024-03-02T04:38:21;59.50;;;41.03;;
13718;SDS011;6931;51.100;17.068;2024-03-02T04:40:48;60.20;;;42.55;;
13718;SDS011;6931;51.100;17.068;2024-03-02T04:43:14;63.30;;;41.53;;
13718;SDS011;6931;51.100;17.068;2024-03-02T04:45:42;56.28;;;41.45;;
13718;SDS011;6931;51.100;17.068;2024-03-02T04:48:09;61.97;;;40.65;;
13718;SDS011;6931;51.100;17.068;2024-03-02T04:50:36;58.45;;;42.53;;
13718;SDS011;6931;51.100;17.068;2024-03-02T04:53:02;63.30;;;43.85;;
13718;SDS011;6931;51.100;17.068;2024-03-02T04:55:29;62.70;;;43.45;;
13718;SDS011;6931;51.100;17.068;2024-03-02T04:58:15;64.72;;;44.50;;
13718;SDS011;6931;51.100;17.068;2024-03-02T05:00:42;64.13;;;44.92;;
13718;SDS011;6931;51.100;17.068;2024-03-02T05:03:12;67.38;;;46.28;;
13718;SDS011;6931;51.100;17.068;2024-03-02T05:05:39;65.53;;;45.85;;
13718;SDS011;6931;51.100;17.068;2024-03-02T05:08:06;63.47;;;45.65;;
13718;SDS011;6931;51.100;17.068;2024-03-02T05:10:32;65.07;;;45.42;;
13718;SDS011;6931;51.100;17.068;2024-03-02T05:12:59;64.35;;;44.42;;
13718;SDS011;6931;51.100;17.068;2024-03-02T05:15:27;62.88;;;45.95;;
13718;SDS011;6931;51.100;17.068;2024-03-02T05:17:54;67.70;;;46.63;;
13718;SDS011;6931;51.100;17.068;2024-03-02T05:20:20;63.80;;;45.05;;
13718;SDS011;6931;51.100;17.068;2024-03-02T05:22:47;67.25;;;45.25;;
13718;SDS011;6931;51.100;17.068;2024-03-02T05:25:14;63.05;;;44.63;;
13718;SDS011;6931;51.100;17.068;2024-03-02T05:27:41;66.47;;;45.20;;
13718;SDS011;6931;51.100;17.068;2024-03-02T05:30:08;61.85;;;44.85;;
13718;SDS011;6931;51.100;17.068;2024-03-02T05:32:35;60.42;;;45.38;;
13718;SDS011;6931;51.100;17.068;2024-03-02T05:35:01;60.20;;;44.05;;
13718;SDS011;6931;51.100;17.068;2024-03-02T05:37:29;60.67;;;44.15;;
13718;SDS011;6931;51.100;17.068;2024-03-02T05:39:55;60.35;;;43.13;;
13718;SDS011;6931;51.100;17.068;2024-03-02T05:42:22;61.40;;;43.13;;
13718;SDS011;6931;51.100;17.068;2024-03-02T05:44:49;62.50;;;43.80;;
13718;SDS011;6931;51.100;17.068;2024-03-02T05:47:16;64.13;;;42.53;;
13718;SDS011;6931;51.100;17.068;2024-03-02T05:49:42;61.08;;;44.35;;
13718;SDS011;6931;51.100;17.068;2024-03-02T05:52:09;67.13;;;44.97;;
13718;SDS011;6931;51.100;17.068;2024-03-02T05:54:37;69.95;;;44.67;;
13718;SDS011;6931;51.100;17.068;2024-03-02T05:57:05;60.47;;;43.65;;
13718;SDS011;6931;51.100;17.068;2024-03-02T05:59:43;64.63;;;44.38;;
13718;SDS011;6931;51.100;17.068;2024-03-02T06:02:10;69.00;;;43.58;;
13718;SDS011;6931;51.100;17.068;2024-03-02T06:04:36;67.15;;;43.97;;
13718;SDS011;6931;51.100;17.068;2024-03-02T06:07:03;63.15;;;43.47;;
13718;SDS011;6931;51.100;17.068;2024-03-02T06:09:30;65.43;;;44.95;;
13718;SDS011;6931;51.100;17.068;2024-03-02T06:11:56;68.07;;;43.70;;
13718;SDS011;6931;51.100;17.068;2024-03-02T06:14:23;66.70;;;43.83;;
13718;SDS011;6931;51.100;17.068;2024-03-02T06:16:49;65.97;;;43.80;;
13718;SDS011;6931;51.100;17.068;2024-03-02T06:19:16;63.70;;;43.13;;
13718;SDS011;6931;51.100;17.068;2024-03-02T06:21:42;64.18;;;44.53;;
13718;SDS011;6931;51.100;17.068;2024-03-02T06:24:09;65.07;;;44.33;;
13718;SDS011;6931;51.100;17.068;2024-03-02T06:26:36;64.30;;;44.83;;
13718;SDS011;6931;51.100;17.068;2024-03-02T06:29:02;58.85;;;43.55;;
13718;SDS011;6931;51.100;17.068;2024-03-02T06:31:29;69.45;;;43.25;;
13718;SDS011;6931;51.100;17.068;2024-03-02T06:33:56;68.47;;;44.15;;
13718;SDS011;6931;51.100;17.068;2024-03-02T06:36:22;63.05;;;44.58;;
13718;SDS011;6931;51.100;17.068;2024-03-02T06:38:49;64.50;;;43.13;;
13718;SDS011;6931;51.100;17.068;2024-03-02T06:41:16;61.72;;;44.90;;
13718;SDS011;6931;51.100;17.068;2024-03-02T06:43:42;63.28;;;43.08;;
13718;SDS011;6931;51.100;17.068;2024-03-02T06:46:09;66.32;;;44.15;;
13718;SDS011;6931;51.100;17.068;2024-03-02T06:48:36;63.63;;;44.67;;
13718;SDS011;6931;51.100;17.068;2024-03-02T06:51:02;62.15;;;43.55;;
13718;SDS011;6931;51.100;17.068;2024-03-02T06:53:29;58.17;;;42.00;;
13718;SDS011;6931;51.100;17.068;2024-03-02T06:55:56;62.15;;;43.70;;
13718;SDS011;6931;51.100;17.068;2024-03-02T06:58:23;60.30;;;44.10;;
13718;SDS011;6931;51.100;17.068;2024-03-02T07:00:49;59.65;;;43.45;;
13718;SDS011;6931;51.100;17.068;2024-03-02T07:03:16;58.90;;;42.33;;
13718;SDS011;6931;51.100;17.068;2024-03-02T07:05:42;63.17;;;43.60;;
13718;SDS011;6931;51.100;17.068;2024-03-02T07:08:09;63.55;;;44.55;;
13718;SDS011;6931;51.100;17.068;2024-03-02T07:10:35;59.78;;;43.78;;
13718;SDS011;6931;51.100;17.068;2024-03-02T07:13:02;63.17;;;43.83;;
13718;SDS011;6931;51.100;17.068;2024-03-02T07:15:29;62.25;;;44.72;;
13718;SDS011;6931;51.100;17.068;2024-03-02T07:18:27;65.18;;;42.45;;
13718;SDS011;6931;51.100;17.068;2024-03-02T07:20:55;59.60;;;41.03;;
13718;SDS011;6931;51.100;17.068;2024-03-02T07:23:24;63.58;;;42.28;;
13718;SDS011;6931;51.100;17.068;2024-03-02T07:25:53;62.00;;;42.55;;
13718;SDS011;6931;51.100;17.068;2024-03-02T07:28:25;58.15;;;42.22;;
13718;SDS011;6931;51.100;17.068;2024-03-02T07:31:02;59.03;;;43.25;;
13718;SDS011;6931;51.100;17.068;2024-03-02T07:33:31;58.05;;;41.10;;
13718;SDS011;6931;51.100;17.068;2024-03-02T07:35:58;68.85;;;50.70;;
13718;SDS011;6931;51.100;17.068;2024-03-02T07:38:30;54.58;;;38.85;;
13718;SDS011;6931;51.100;17.068;2024-03-02T07:40:58;57.92;;;40.67;;
13718;SDS011;6931;51.100;17.068;2024-03-02T07:43:25;71.82;;;50.90;;
13718;SDS011;6931;51.100;17.068;2024-03-02T07:45:52;54.67;;;39.85;;
13718;SDS011;6931;51.100;17.068;2024-03-02T07:48:19;51.30;;;38.15;;
13718;SDS011;6931;51.100;17.068;2024-03-02T07:50:46;51.85;;;37.17;;
13718;SDS011;6931;51.100;17.068;2024-03-02T07:53:12;50.58;;;36.30;;
13718;SDS011;6931;51.100;17.068;2024-03-02T07:55:40;49.47;;;37.70;;
13718;SDS011;6931;51.100;17.068;2024-03-02T07:58:08;52.42;;;36.63;;
13718;SDS011;6931;51.100;17.068;2024-03-02T08:00:35;50.75;;;35.50;;
13718;SDS011;6931;51.100;17.068;2024-03-02T08:03:01;51.45;;;35.78;;
13718;SDS011;6931;51.100;17.068;2024-03-02T08:05:28;46.30;;;34.38;;
13718;SDS011;6931;51.100;17.068;2024-03-02T08:07:55;45.67;;;34.42;;
13718;SDS011;6931;51.100;17.068;2024-03-02T08:10:21;44.58;;;35.03;;
13718;SDS011;6931;51.100;17.068;2024-03-02T08:12:48;44.95;;;34.05;;
13718;SDS011;6931;51.100;17.068;2024-03-02T08:15:14;49.72;;;36.22;;
13718;SDS011;6931;51.100;17.068;2024-03-02T08:17:41;49.70;;;35.28;;
13718;SDS011;6931;51.100;17.068;2024-03-02T08:20:11;46.72;;;34.80;;
13718;SDS011;6931;51.100;17.068;2024-03-02T08:22:39;45.38;;;34.35;;
13718;SDS011;6931;51.100;17.068;2024-03-02T08:25:06;42.85;;;32.58;;
13718;SDS011;6931;51.100;17.068;2024-03-02T08:27:34;46.67;;;34.63;;
13718;SDS011;6931;51.100;17.068;2024-03-02T08:30:01;47.03;;;33.72;;
13718;SDS011;6931;51.100;17.068;2024-03-02T08:32:30;43.95;;;33.35;;
13718;SDS011;6931;51.100;17.068;2024-03-02T08:34:58;48.53;;;35.15;;
13718;SDS011;6931;51.100;17.068;2024-03-02T08:37:24;43.95;;;33.83;;
13718;SDS011;6931;51.100;17.068;2024-03-02T08:39:51;42.10;;;32.17;;
13718;SDS011;6931;51.100;17.068;2024-03-02T08:42:17;43.47;;;33.80;;
13718;SDS011;6931;51.100;17.068;2024-03-02T08:44:44;46.08;;;34.05;;
13718;SDS011;6931;51.100;17.068;2024-03-02T08:47:10;44.78;;;32.40;;
13718;SDS011;6931;51.100;17.068;2024-03-02T08:49:37;44.35;;;32.40;;
13718;SDS011;6931;51.100;17.068;2024-03-02T08:52:04;41.22;;;31.42;;
13718;SDS011;6931;51.100;17.068;2024-03-02T08:54:31;47.03;;;33.83;;
13718;SDS011;6931;51.100;17.068;2024-03-02T08:56:58;43.65;;;36.47;;
13718;SDS011;6931;51.100;17.068;2024-03-02T08:59:25;38.13;;;30.70;;
13718;SDS011;6931;51.100;17.068;2024-03-02T09:01:54;41.40;;;30.38;;
13718;SDS011;6931;51.100;17.068;2024-03-02T09:04:20;39.05;;;31.15;;
13718;SDS011;6931;51.100;17.068;2024-03-02T09:06:52;39.13;;;31.23;;
13718;SDS011;6931;51.100;17.068;2024-03-02T09:09:18;43.53;;;31.00;;
13718;SDS011;6931;51.100;17.068;2024-03-02T09:11:45;37.15;;;30.38;;
13718;SDS011;6931;51.100;17.068;2024-03-02T09:14:12;38.80;;;28.80;;
13718;SDS011;6931;51.100;17.068;2024-03-02T09:16:41;39.65;;;28.90;;
13718;SDS011;6931;51.100;17.068;2024-03-02T09:19:08;39.13;;;28.05;;
13718;SDS011;6931;51.100;17.068;2024-03-02T09:21:36;37.78;;;28.80;;
13718;SDS011;6931;51.100;17.068;2024-03-02T09:24:02;35.38;;;27.35;;
13718;SDS011;6931;51.100;17.068;2024-03-02T09:26:29;34.67;;;26.58;;
13718;SDS011;6931;51.100;17.068;2024-03-02T09:28:56;34.88;;;26.60;;
13718;SDS011;6931;51.100;17.068;2024-03-02T09:31:23;36.22;;;27.17;;
13718;SDS011;6931;51.100;17.068;2024-03-02T09:33:49;35.53;;;26.92;;
13718;SDS011;6931;51.100;17.068;2024-03-02T09:36:16;33.92;;;25.90;;
13718;SDS011;6931;51.100;17.068;2024-03-02T09:38:46;32.55;;;25.17;;
13718;SDS011;6931;51.100;17.068;2024-03-02T09:41:14;34.50;;;27.20;;
13718;SDS011;6931;51.100;17.068;2024-03-02T09:43:41;35.75;;;27.20;;
13718;SDS011;6931;51.100;17.068;2024-03-02T09:46:10;37.40;;;27.40;;
13718;SDS011;6931;51.100;17.068;2024-03-02T09:48:37;36.28;;;26.42;;
13718;SDS011;6931;51.100;17.068;2024-03-02T09:51:04;34.50;;;26.80;;
13718;SDS011;6931;51.100;17.068;2024-03-02T09:53:32;35.00;;;28.38;;
13718;SDS011;6931;51.100;17.068;2024-03-02T09:56:00;33.20;;;25.60;;
13718;SDS011;6931;51.100;17.068;2024-03-02T09:58:27;35.38;;;25.33;;
13718;SDS011;6931;51.100;17.068;2024-03-02T10:00:53;30.98;;;26.00;;
13718;SDS011;6931;51.100;17.068;2024-03-02T10:03:20;35.67;;;24.83;;
13718;SDS011;6931;51.100;17.068;2024-03-02T10:05:49;31.95;;;24.48;;
13718;SDS011;6931;51.100;17.068;2024-03-02T10:08:16;32.22;;;24.08;;
13718;SDS011;6931;51.100;17.068;2024-03-02T10:10:42;30.92;;;24.77;;
13718;SDS011;6931;51.100;17.068;2024-03-02T10:13:12;30.42;;;24.67;;
13718;SDS011;6931;51.100;17.068;2024-03-02T10:15:40;30.95;;;23.73;;
13718;SDS011;6931;51.100;17.068;2024-03-02T10:18:08;27.48;;;23.70;;
13718;SDS011;6931;51.100;17.068;2024-03-02T10:20:39;30.05;;;24.13;;
13718;SDS011;6931;51.100;17.068;2024-03-02T10:23:10;28.38;;;22.83;;
13718;SDS011;6931;51.100;17.068;2024-03-02T10:25:41;29.23;;;23.38;;
13718;SDS011;6931;51.100;17.068;2024-03-02T10:28:22;28.58;;;22.88;;
13718;SDS011;6931;51.100;17.068;2024-03-02T10:30:49;30.25;;;22.88;;
13718;SDS011;6931;51.100;17.068;2024-03-02T10:33:17;31.63;;;23.10;;
13718;SDS011;6931;51.100;17.068;2024-03-02T10:35:44;29.73;;;23.23;;
13718;SDS011;6931;51.100;17.068;2024-03-02T10:38:11;27.63;;;23.13;;
13718;SDS011;6931;51.100;17.068;2024-03-02T10:40:38;24.52;;;21.67;;
13718;SDS011;6931;51.100;17.068;2024-03-02T10:43:04;27.35;;;21.92;;
13718;SDS011;6931;51.100;17.068;2024-03-02T10:45:34;25.90;;;21.55;;
13718;SDS011;6931;51.100;17.068;2024-03-02T10:48:01;27.40;;;21.77;;
13718;SDS011;6931;51.100;17.068;2024-03-02T10:50:28;28.55;;;21.88;;
13718;SDS011;6931;51.100;17.068;2024-03-02T10:52:56;28.92;;;22.95;;
13718;SDS011;6931;51.100;17.068;2024-03-02T10:55:23;28.98;;;22.90;;
13718;SDS011;6931;51.100;17.068;2024-03-02T10:57:53;27.27;;;22.42;;
13718;SDS011;6931;51.100;17.068;2024-03-02T11:00:24;29.13;;;23.67;;
13718;SDS011;6931;51.100;17.068;2024-03-02T11:02:57;30.17;;;21.63;;
13718;SDS011;6931;51.100;17.068;2024-03-02T11:05:33;31.20;;;22.88;;
13718;SDS011;6931;51.100;17.068;2024-03-02T11:08:16;29.20;;;21.55;;
13718;SDS011;6931;51.100;17.068;2024-03-02T11:10:48;27.45;;;22.95;;
13718;SDS011;6931;51.100;17.068;2024-03-02T11:13:22;30.88;;;22.33;;
13718;SDS011;6931;51.100;17.068;2024-03-02T11:15:51;27.33;;;22.08;;
13718;SDS011;6931;51.100;17.068;2024-03-02T11:18:22;28.45;;;22.77;;
13718;SDS011;6931;51.100;17.068;2024-03-02T11:20:49;33.17;;;22.58;;
13718;SDS011;6931;51.100;17.068;2024-03-02T11:23:16;25.02;;;21.70;;
13718;SDS011;6931;51.100;17.068;2024-03-02T11:25:43;30.00;;;21.73;;
13718;SDS011;6931;51.100;17.068;2024-03-02T11:28:09;26.42;;;22.17;;
13718;SDS011;6931;51.100;17.068;2024-03-02T11:33:07;27.38;;;20.90;;
13718;SDS011;6931;51.100;17.068;2024-03-02T11:35:37;28.38;;;19.83;;
13718;SDS011;6931;51.100;17.068;2024-03-02T11:38:04;29.27;;;20.80;;
13718;SDS011;6931;51.100;17.068;2024-03-02T11:40:32;30.52;;;21.10;;
13718;SDS011;6931;51.100;17.068;2024-03-02T11:42:59;25.00;;;19.05;;
13718;SDS011;6931;51.100;17.068;2024-03-02T11:45:27;24.15;;;19.23;;
13718;SDS011;6931;51.100;17.068;2024-03-02T11:47:54;24.58;;;20.33;;
13718;SDS011;6931;51.100;17.068;2024-03-02T11:50:34;24.58;;;19.13;;
13718;SDS011;6931;51.100;17.068;2024-03-02T11:53:05;23.15;;;18.63;;
13718;SDS011;6931;51.100;17.068;2024-03-02T11:55:33;25.77;;;18.63;;
13718;SDS011;6931;51.100;17.068;2024-03-02T11:58:03;27.88;;;19.70;;
13718;SDS011;6931;51.100;17.068;2024-03-02T12:00:30;24.98;;;19.38;;
13718;SDS011;6931;51.100;17.068;2024-03-02T12:03:06;23.25;;;18.73;;
13718;SDS011;6931;51.100;17.068;2024-03-02T12:05:34;26.35;;;19.85;;
13718;SDS011;6931;51.100;17.068;2024-03-02T12:08:05;25.98;;;20.13;;
13718;SDS011;6931;51.100;17.068;2024-03-02T12:10:33;23.52;;;18.20;;
13718;SDS011;6931;51.100;17.068;2024-03-02T12:13:01;24.70;;;18.95;;
13718;SDS011;6931;51.100;17.068;2024-03-02T12:15:30;26.15;;;19.40;;
13718;SDS011;6931;51.100;17.068;2024-03-02T12:17:59;24.80;;;20.10;;
13718;SDS011;6931;51.100;17.068;2024-03-02T12:20:27;25.15;;;20.08;;
13718;SDS011;6931;51.100;17.068;2024-03-02T12:22:57;24.67;;;19.23;;
13718;SDS011;6931;51.100;17.068;2024-03-02T12:25:24;26.45;;;21.05;;
13718;SDS011;6931;51.100;17.068;2024-03-02T12:27:56;25.65;;;21.63;;
13718;SDS011;6931;51.100;17.068;2024-03-02T12:30:24;25.85;;;19.42;;
13718;SDS011;6931;51.100;17.068;2024-03-02T12:32:55;25.92;;;20.48;;
13718;SDS011;6931;51.100;17.068;2024-03-02T12:35:22;23.58;;;18.40;;
13718;SDS011;6931;51.100;17.068;2024-03-02T12:37:51;23.45;;;17.00;;
13718;SDS011;6931;51.100;17.068;2024-03-02T12:40:19;23.42;;;16.55;;
13718;SDS011;6931;51.100;17.068;2024-03-02T12:42:49;27.05;;;20.35;;
13718;SDS011;6931;51.100;17.068;2024-03-02T12:45:16;23.67;;;19.77;;
13718;SDS011;6931;51.100;17.068;2024-03-02T12:47:51;25.75;;;20.63;;
13718;SDS011;6931;51.100;17.068;2024-03-02T12:50:18;29.23;;;21.13;;
13718;SDS011;6931;51.100;17.068;2024-03-02T12:52:52;28.38;;;21.52;;
13718;SDS011;6931;51.100;17.068;2024-03-02T12:55:22;31.52;;;21.67;;
13718;SDS011;6931;51.100;17.068;2024-03-02T12:57:50;34.38;;;25.23;;
13718;SDS011;6931;51.100;17.068;2024-03-02T13:00:19;33.28;;;23.70;;
13718;SDS011;6931;51.100;17.068;2024-03-02T13:02:47;28.30;;;22.83;;
13718;SDS011;6931;51.100;17.068;2024-03-02T13:05:14;28.98;;;21.58;;
13718;SDS011;6931;51.100;17.068;2024-03-02T13:07:40;28.75;;;22.50;;
13718;SDS011;6931;51.100;17.068;2024-03-02T13:10:07;26.40;;;20.85;;
13718;SDS011;6931;51.100;17.068;2024-03-02T13:12:35;25.38;;;18.85;;
13718;SDS011;6931;51.100;17.068;2024-03-02T13:15:03;26.42;;;18.52;;
13718;SDS011;6931;51.100;17.068;2024-03-02T13:17:31;29.05;;;23.33;;
13718;SDS011;6931;51.100;17.068;2024-03-02T13:20:04;37.25;;;25.48;;
13718;SDS011;6931;51.100;17.068;2024-03-02T13:22:35;42.22;;;31.23;;
13718;SDS011;6931;51.100;17.068;2024-03-02T13:25:02;33.70;;;24.10;;
13718;SDS011;6931;51.100;17.068;2024-03-02T13:27:33;30.17;;;23.08;;
13718;SDS011;6931;51.100;17.068;2024-03-02T13:30:00;23.60;;;20.55;;
13718;SDS011;6931;51.100;17.068;2024-03-02T13:32:29;26.73;;;20.77;;
13718;SDS011;6931;51.100;17.068;2024-03-02T13:34:55;29.75;;;23.70;;
13718;SDS011;6931;51.100;17.068;2024-03-02T13:37:22;30.15;;;23.55;;
13718;SDS011;6931;51.100;17.068;2024-03-02T13:39:49;39.13;;;26.13;;
13718;SDS011;6931;51.100;17.068;2024-03-02T13:42:15;42.03;;;30.48;;
13718;SDS011;6931;51.100;17.068;2024-03-02T13:44:43;29.05;;;22.13;;
13718;SDS011;6931;51.100;17.068;2024-03-02T13:47:11;25.10;;;19.95;;
13718;SDS011;6931;51.100;17.068;2024-03-02T13:49:38;25.35;;;18.98;;
13718;SDS011;6931;51.100;17.068;2024-03-02T13:52:09;22.02;;;17.83;;
13718;SDS011;6931;51.100;17.068;2024-03-02T13:54:39;22.05;;;18.27;;
13718;SDS011;6931;51.100;17.068;2024-03-02T13:57:08;25.73;;;18.67;;
13718;SDS011;6931;51.100;17.068;2024-03-02T13:59:35;26.95;;;20.02;;
13718;SDS011;6931;51.100;17.068;2024-03-02T14:02:02;21.30;;;18.20;;
13718;SDS011;6931;51.100;17.068;2024-03-02T14:04:31;21.60;;;17.63;;
13718;SDS011;6931;51.100;17.068;2024-03-02T14:07:01;22.20;;;16.63;;
13718;SDS011;6931;51.100;17.068;2024-03-02T14:09:28;24.02;;;18.40;;
13718;SDS011;6931;51.100;17.068;2024-03-02T14:11:55;19.48;;;16.90;;
13718;SDS011;6931;51.100;17.068;2024-03-02T14:14:22;19.55;;;16.60;;
13718;SDS011;6931;51.100;17.068;2024-03-02T14:16:49;24.73;;;15.55;;
13718;SDS011;6931;51.100;17.068;2024-03-02T14:19:16;26.73;;;15.48;;
13718;SDS011;6931;51.100;17.068;2024-03-02T14:21:43;19.83;;;14.90;;
13718;SDS011;6931;51.100;17.068;2024-03-02T14:24:09;21.75;;;15.05;;
13718;SDS011;6931;51.100;17.068;2024-03-02T14:26:36;17.52;;;15.20;;
13718;SDS011;6931;51.100;17.068;2024-03-02T14:29:03;21.23;;;15.55;;
13718;SDS011;6931;51.100;17.068;2024-03-02T14:31:31;20.20;;;15.50;;
13718;SDS011;6931;51.100;17.068;2024-03-02T14:33:58;20.40;;;16.67;;